Mountain Ash, United Kingdom
Current Conditions -  °F | °C
As of 9:50 AM on Saturday 25 Oct 2014 (Local Time) from EGFF Reporting Station
Light Rain Light Rain  
Wind Chill: 12°   Ceiling: 2300
Heat Index: 12°   Visibility: 3mi
Dew Point: 10°   Wind: 12mph
Humidity: 88%   Direction: 240°WSW
Pressure: 30.03"   Gusts: NA
Location:  51.68°N, 3.38°W
Report Text: EGFF 250850Z AUTO 24010KT 5000 -RA FEW017 BKN023 OVC039 12/10 Q1017
Loading
Personal Weather Stations






























Interactive Weather Map
Tropical Storm Tracking
New forecast layout! Learn more

10-Day Weather Forecast

Advertisements
Track Severe Weather on mobile